• Join FlightAware (Why Join?)
  • Login
  • US Flag 
12:06AM EDT


 

Airport Tracker/Info


-or-


 

Live Flight TrackerFlight Track Log ✈ UAL3821 ✈ 02-May-2013 ✈ KEWR - KRDU

Flight Track Log - Related Links

Times and Time Zones

All times are in EDT time to prevent confusion due to time zone crossing. See the UAL3821 flight status page for this flight to view local times or setup timezone preferences in your user account.

Time Position Orientation Groundspeed Altitude Reporting Facility
EDT Latitude Longitude Course Direction KTS MPH feet Rate Location/Type
06:36AM 40.7167 -74.1500 194° South 166 191 2,000  Level New York TRACON
06:37AM 40.7500 -74.1000 49° Northeast 237 273 3,700 2,100 Climbing New York TRACON
06:38AM 40.8000 -74.1500 323° Northwest 285 328 6,000 1,200 Climbing New York TRACON
06:39AM 40.2710 -74.1597 194° South  Level FlightAware Approximate
06:39AM 40.7500 -74.2000 217° Southwest 277 319 6,100  Level New York TRACON
06:40AM 40.1613 -74.1962 194° South  Level FlightAware Approximate
06:40AM 40.6833 -74.2333 201° Southwest 291 335 7,900  Level New York TRACON
06:41AM 40.0519 -74.2272 194° South  Level FlightAware Approximate
06:41AM 40.6333 -74.3167 232° Southwest 280 322 11,000  Level New York TRACON
06:42AM 40.5667 -74.3000 169° South 301 346 12,500 1,260 Climbing New York TRACON
06:42AM 40.4833 -74.2500 155° Southeast 338 389 13,500 1,200 Climbing New York TRACON
06:44AM 40.3081 -74.2519 180° South 365 420 15,800 1,260 Climbing New York Center
06:45AM 40.1978 -74.2547 181° South 380 437 17,100 960 Climbing New York Center
06:46AM 40.0850 -74.2492 178° South 389 448 17,800 960 Climbing Washington Center
06:47AM 39.9750 -74.2811 193° South 384 442 19,100 1,260 Climbing Washington Center
06:48AM 39.8822 -74.3694 216° Southwest 389 448 20,400 1,320 Climbing Washington Center
06:49AM 39.7894 -74.4656 219° Southwest 414 476 21,700 1,260 Climbing Washington Center
06:50AM 39.7072 -74.5800 227° Southwest 425 489 23,000 1,260 Climbing Washington Center
06:51AM 39.6206 -74.6892 224° Southwest 431 496 24,300 1,260 Climbing Washington Center
06:52AM 39.5358 -74.8031 226° Southwest 431 496 25,600 840 Climbing Washington Center
06:53AM 39.4594 -74.9033 225° Southwest 431 496 26,000 180 Climbing Washington Center
06:54AM 39.3706 -75.0225 226° Southwest 437 503 26,000  Level Washington Center
06:55AM 39.2792 -75.1411 225° Southwest 453 521 26,000  Level Washington Center
06:56AM 39.1839 -75.2622 225° Southwest 472 543 26,000  Level Washington Center
06:57AM 39.0881 -75.3883 226° Southwest 485 558 26,000  Level Washington Center
06:58AM 38.9925 -75.5114 225° Southwest 485 558 26,000  Level Washington Center
06:59AM 38.9008 -75.6369 227° Southwest 485 558 26,000  Level Washington Center
07:00AM 38.8444 -75.7969 246° West 485 558 26,000  Level Washington Center
07:01AM 38.7814 -75.9406 241° Southwest 485 558 26,000  Level Washington Center
07:02AM 38.6747 -76.0436 217° Southwest 476 548 26,000  Level Washington Center
07:03AM 38.5639 -76.1361 213° Southwest 471 542 26,000  Level Washington Center
07:04AM 38.4592 -76.2439 219° Southwest 486 559 26,000  Level Washington Center
07:06AM 38.3530 -76.3383 215° Southwest  Level FlightAware Approximate
07:06AM 38.2536 -76.4483 215° Southwest 478 550 26,000  Level Washington Center
07:07AM 38.1650 -76.5689 227° Southwest 468 539 26,000  Level Washington Center
07:08AM 38.0742 -76.6997 229° Southwest 476 548 26,000 -420 Level Washington Center
07:09AM 37.9794 -76.8142 224° Southwest 481 554 25,200 -1,200 Descending Washington Center
07:10AM 37.8597 -76.8753 202° Southwest 473 544 23,700 -1,440 Descending Washington Center
07:11AM 37.7342 -76.9308 199° South 473 544 22,300 -900 Descending Washington Center
07:12AM 37.6167 -76.9839 200° South 462 532 22,000 -180 Descending Washington Center
07:13AM 37.4867 -77.0469 201° Southwest 452 520 22,000  Level Washington Center
07:14AM 37.3797 -77.0947 200° South 452 520 22,000  Level Washington Center
07:15AM 37.2536 -77.1678 205° Southwest 447 514 22,000  Level Washington Center
07:16AM 37.1439 -77.2439 209° Southwest 452 520 22,000  Level Washington Center
07:17AM 37.0367 -77.3222 210° Southwest 457 526 22,000  Level Washington Center
07:18AM 36.9372 -77.3978 211° Southwest 463 533 22,000  Level Washington Center
07:19AM 36.8297 -77.4758 210° Southwest 458 527 22,000  Level Washington Center
07:20AM 36.7242 -77.5561 211° Southwest 453 521 22,000  Level Washington Center
07:21AM 36.6164 -77.6361 211° Southwest 453 521 22,000  Level Washington Center
07:22AM 36.5128 -77.7214 213° Southwest 453 521 22,000 -660 Level Washington Center
07:23AM 36.4272 -77.8300 226° Southwest 443 510 20,700 -1,380 Descending Washington Center
07:24AM 36.3653 -77.9083 226° Southwest 432 497 19,800 -1,500 Descending Washington Center
07:24AM 36.3458 -77.9386 231° Southwest 443 510 19,200 -2,100 Descending Washington Center
07:25AM 36.2817 -78.0192 225° Southwest 408 470 17,500 -2,400 Descending Washington Center
07:25AM 36.2686 -78.0444 237° Southwest 432 497 16,900 -3,180 Descending Washington Center
07:26AM 36.1981 -78.1272 223° Southwest 405 466 14,300 -2,880 Descending Washington Center
07:26AM 36.1914 -78.1425 242° Southwest 411 473 14,000 -2,040 Descending Washington Center
07:27AM 36.1439 -78.2208 233° Southwest 393 452 12,500 -2,220 Descending Washington Center
07:27AM 36.1242 -78.2639 240° Southwest 400 460 11,800 -1,560 Descending Washington Center
07:28AM 36.0914 -78.3269 237° Southwest 362 417 10,900 -1,260 Descending Washington Center
07:28AM 36.0803 -78.3572 246° West 374 430 10,600 -1,320 Descending Washington Center
07:29AM 36.0433 -78.4281 237° Southwest 292 336 9,700 -1,140 Descending Washington Center
07:29AM 36.0431 -78.4331 266° West 321 369 9,500 -1,080 Descending Washington Center
07:30AM 36.0014 -78.5164 238° Southwest 272 313 8,500 -1,080 Descending Washington Center
07:30AM 35.9969 -78.5264 241° Southwest 304 350 8,400 -540 Descending Washington Center
07:31AM 35.9478 -78.5786 221° Southwest 265 305 8,000 -180 Descending Washington Center
07:32AM 35.8942 -78.6328 219° Southwest 240 276 8,100 -300 Climbing Washington Center
07:33AM 35.8386 -78.6819 216° Southwest 235 270 7,500 -1,020 Descending Washington Center
07:34AM 35.7933 -78.7417 227° Southwest 245 282 6,100 -1,500 Descending Washington Center
07:35AM 35.7394 -78.8086 225° Southwest 235 270 4,400 -1,080 Descending Washington Center
07:36AM 35.7022 -78.8686 233° Southwest 235 270 3,900 -1,020 Descending Washington Center
07:37AM 35.7233 -78.9358 291° West 231 266 2,500 -960 Descending Washington Center
07:38AM 35.7653 -78.9325 North 172 198 2,100 -180 Descending Washington Center
07:39AM 35.7975 -78.8981 41° Northeast 159 183 2,200 -180 Climbing Washington Center
07:40AM 35.8256 -78.8633 45° Northeast 116 133 1,800 -420 Descending Washington Center